Aviation Digital Data Service (ADDS)

Output produced by METARs form (0807 UTC 02 July 2015)
found at http://aviationweather.gov/adds/metars/
 
KMGW 020538Z 0206/0306 00000KT P6SM SCT250 
     FM020900 00000KT 1SM BR BKN004 
     FM021300 32002KT 3SM BR SCT010 BKN120 
     FM021500 33003KT P6SM BKN050